NCAR-RAP Real-Time Weather Data

Output produced by METARs form (19 June 2019  11:32 UTC)
found at http://weather.rap.ucar.edu/surface/
 
KBUF 191054Z 18004KT 10SM FEW120 BKN200 16/13 A2983 RMK AO2 SLP099 T01610133
KBUF 190954Z 17003KT 10SM FEW120 BKN200 15/13 A2984 RMK AO2 SLP102 T01500128
KBUF 190854Z 17003KT 10SM FEW200 16/13 A2984 RMK AO2 SLP103 T01560128 56007
KBUF 190754Z 19003KT 10SM CLR 16/13 A2985 RMK AO2 SLP104 T01560128
KBUF 190654Z 20005KT 10SM CLR 16/13 A2985 RMK AO2 SLP105 T01560128
KBUF 190554Z 18005KT 10SM CLR 16/13 A2986 RMK AO2 SLP110 T01610128 10233 20161 56008
KBUF 190454Z 21004KT 10SM CLR 17/12 A2987 RMK AO2 SLP112 T01670122 402670156
KBUF 190354Z 21004KT 10SM FEW120 17/13 A2988 RMK AO2 SLP115 T01720128
KBUF 190254Z 19005KT 10SM FEW130 18/14 A2989 RMK AO2 SLP119 T01780139 53005
KBUF 190154Z 20005KT 10SM FEW130 FEW290 19/14 A2989 RMK AO2 SLP118 T01890139
KBUF 190054Z 08003KT 10SM FEW045 FEW100 FEW290 22/14 A2987 RMK AO2 SLP113 T02220139
KBUF 182354Z 03004KT 10SM FEW045 FEW080 FEW250 23/14 A2987 RMK AO2 SLP113 T02330139 10267 20228 55002
KBUF 182254Z 21005KT 10SM FEW030 BKN045 BKN075 BKN230 23/15 A2986 RMK AO2 SLP110 MDT CU DSNT SE T02280150
KBUF 182154Z 32006KT 10SM FEW026 SCT048 BKN070 BKN230 25/15 A2988 RMK AO2 SLP114 T02500150
KBUF 182054Z 36007KT 10SM SCT043 SCT230 SCT300 26/15 A2988 RMK AO2 SLP114 T02560150 58009
KBUF 181954Z VRB04KT 10SM FEW041 FEW200 FEW250 FEW300 26/15 A2989 RMK AO2 SLP118 T02560150
KBUF 181854Z 34009KT 10SM FEW041 FEW200 FEW250 26/16 A2990 RMK AO2 SLP121 T02560156
KBUF 181754Z 01005KT 10SM FEW039 FEW200 FEW250 25/15 A2991 RMK AO2 SLP124 T02500150 10256 20167 58008
KBUF 181654Z VRB04KT 10SM FEW035 FEW120 FEW250 24/15 A2992 RMK AO2 SLP128 T02390150
KBUF 181554Z VRB03KT 10SM FEW050 FEW100 FEW250 23/14 A2993 RMK AO2 SLP132 T02330144
KBUF 181454Z 09004KT 10SM FEW050 FEW100 FEW250 22/13 A2993 RMK AO2 SLP134 T02170133 58005
KBUF 181354Z 04004KT 10SM SCT050 BKN100 20/13 A2995 RMK AO2 SLP138 T02000133